createdAt,value
2019-04-29T00:01:50.595Z,16.63
2019-04-29T00:04:23.275Z,16.20
2019-04-29T00:06:55.992Z,23.80
2019-04-29T00:09:31.010Z,16.37
2019-04-29T00:12:03.200Z,25.10
2019-04-29T00:14:37.769Z,20.83
2019-04-29T00:17:13.225Z,17.07
2019-04-29T00:19:50.150Z,17.07
2019-04-29T00:22:22.750Z,12.40
2019-04-29T00:24:55.235Z,19.50
2019-04-29T00:27:28.275Z,20.37
2019-04-29T00:30:00.950Z,13.13
2019-04-29T00:32:33.880Z,18.57
2019-04-29T00:35:08.172Z,16.30
2019-04-29T00:37:55.525Z,13.37
2019-04-29T00:40:30.565Z,11.40
2019-04-29T00:43:20.895Z,10.47
2019-04-29T00:45:53.640Z,9.23
2019-04-29T00:48:26.310Z,8.03
2019-04-29T00:50:59.092Z,10.10
2019-04-29T00:53:31.704Z,9.30
2019-04-29T00:56:05.175Z,8.97
2019-04-29T00:58:37.585Z,9.60
2019-04-29T01:01:14.006Z,9.50
2019-04-29T01:03:46.684Z,8.17
2019-04-29T01:06:19.475Z,9.07
2019-04-29T01:08:51.940Z,7.40
2019-04-29T01:11:24.725Z,8.33
2019-04-29T01:13:57.376Z,7.77
2019-04-29T01:16:30.096Z,7.93
2019-04-29T01:19:03.969Z,7.33
2019-04-29T01:21:36.801Z,15.80
2019-04-29T01:24:09.537Z,9.53
2019-04-29T01:26:49.910Z,9.10
2019-04-29T01:29:24.214Z,8.77
2019-04-29T01:31:57.422Z,8.77
2019-04-29T01:34:31.640Z,7.57
2019-04-29T01:37:04.255Z,7.13
2019-04-29T01:39:43.960Z,7.03
2019-04-29T01:42:18.286Z,7.63
2019-04-29T01:44:50.835Z,9.07
2019-04-29T01:47:23.424Z,7.27
2019-04-29T01:49:56.060Z,7.20
2019-04-29T01:52:28.599Z,7.50
2019-04-29T01:55:01.241Z,7.17
2019-04-29T01:57:33.714Z,6.83
2019-04-29T02:00:12.244Z,7.53
2019-04-29T02:02:43.975Z,7.70
2019-04-29T02:05:16.490Z,6.83
2019-04-29T02:07:48.955Z,7.70
2019-04-29T02:10:23.272Z,6.60
2019-04-29T02:12:55.922Z,7.10
2019-04-29T02:15:28.600Z,7.17
2019-04-29T02:18:01.106Z,7.47
2019-04-29T02:20:34.946Z,7.47
2019-04-29T02:23:07.300Z,7.07
2019-04-29T02:25:44.682Z,7.93
2019-04-29T02:28:17.296Z,9.33
2019-04-29T02:30:53.245Z,6.87
2019-04-29T02:33:25.888Z,7.53
2019-04-29T02:35:58.826Z,8.10
2019-04-29T02:38:34.374Z,8.33
2019-04-29T02:41:27.181Z,7.30
2019-04-29T02:44:01.396Z,7.77
2019-04-29T02:46:34.132Z,8.07
2019-04-29T02:49:06.956Z,8.10
2019-04-29T02:51:44.300Z,8.70
2019-04-29T02:54:16.970Z,8.10
2019-04-29T02:57:02.933Z,8.30
2019-04-29T02:59:55.545Z,8.77
2019-04-29T03:02:30.082Z,9.37
2019-04-29T03:05:04.797Z,8.97
2019-04-29T03:07:37.472Z,9.03
2019-04-29T03:10:10.376Z,9.20
2019-04-29T03:12:43.006Z,9.33
2019-04-29T03:15:19.970Z,9.43
2019-04-29T03:17:53.741Z,9.60
2019-04-29T03:20:28.055Z,10.27
2019-04-29T03:23:14.246Z,11.37
2019-04-29T03:25:47.031Z,10.63
2019-04-29T03:28:19.751Z,9.50
2019-04-29T03:30:52.370Z,10.37
2019-04-29T03:33:25.125Z,11.87
2019-04-29T03:35:58.060Z,11.93
2019-04-29T03:38:31.625Z,11.30
2019-04-29T03:41:04.319Z,11.17
2019-04-29T03:43:37.001Z,10.47
2019-04-29T03:46:09.607Z,10.63
2019-04-29T03:48:42.464Z,11.77
2019-04-29T03:51:14.939Z,11.53
2019-04-29T03:53:47.500Z,12.67
2019-04-29T03:56:20.091Z,11.73
2019-04-29T03:58:52.847Z,12.23
2019-04-29T04:01:27.012Z,12.27
2019-04-29T04:04:03.977Z,12.83
2019-04-29T04:06:38.130Z,11.73
2019-04-29T04:09:19.575Z,13.00
2019-04-29T04:11:52.170Z,14.57
2019-04-29T04:14:24.911Z,14.70
2019-04-29T04:16:59.255Z,13.37
2019-04-29T04:19:33.635Z,12.17
2019-04-29T04:22:06.185Z,15.33
2019-04-29T04:24:39.031Z,15.87
2019-04-29T04:27:11.616Z,13.77
2019-04-29T04:29:44.310Z,15.00
2019-04-29T04:32:17.156Z,13.97
2019-04-29T04:34:50.173Z,16.33
2019-04-29T04:37:23.028Z,15.43
2019-04-29T04:39:56.836Z,15.30
2019-04-29T04:42:30.096Z,14.73
2019-04-29T04:45:02.998Z,15.40
2019-04-29T04:47:35.689Z,15.23
2019-04-29T04:50:09.035Z,17.53
2019-04-29T04:52:41.590Z,16.90
2019-04-29T04:55:14.720Z,17.10
2019-04-29T04:57:47.585Z,17.10
2019-04-29T05:00:22.478Z,18.90
2019-04-29T05:02:55.975Z,19.83
2019-04-29T05:05:28.524Z,19.70
2019-04-29T05:08:01.298Z,19.23
2019-04-29T05:10:34.010Z,19.73
2019-04-29T05:13:06.470Z,19.97
2019-04-29T05:15:39.441Z,21.07
2019-04-29T05:18:12.157Z,20.80
2019-04-29T05:20:44.924Z,21.60
2019-04-29T05:23:17.475Z,21.70
2019-04-29T05:25:50.155Z,19.63
2019-04-29T05:28:22.775Z,18.57
2019-04-29T05:30:55.515Z,21.07
2019-04-29T05:33:27.918Z,20.60
2019-04-29T05:36:07.700Z,20.27
2019-04-29T05:38:41.790Z,19.20
2019-04-29T05:41:14.680Z,19.70
2019-04-29T05:43:49.179Z,21.93
2019-04-29T05:46:27.381Z,21.77
2019-04-29T05:49:02.496Z,19.93
2019-04-29T05:51:35.909Z,21.00
2019-04-29T05:54:10.019Z,21.07
2019-04-29T05:56:42.842Z,20.90
2019-04-29T05:59:15.419Z,19.47
2019-04-29T06:01:48.980Z,20.80
2019-04-29T06:04:21.585Z,20.47
2019-04-29T06:06:54.345Z,21.77
2019-04-29T06:09:26.925Z,22.43
2019-04-29T06:11:59.633Z,21.17
2019-04-29T06:14:32.498Z,20.83
2019-04-29T06:17:07.692Z,22.27
2019-04-29T06:19:41.041Z,22.40
2019-04-29T06:22:13.920Z,22.23
2019-04-29T06:24:46.779Z,22.77
2019-04-29T06:27:19.552Z,22.30
2019-04-29T06:29:52.333Z,23.57
2019-04-29T06:32:26.387Z,24.63
2019-04-29T06:34:59.669Z,23.17
2019-04-29T06:37:32.320Z,23.00
2019-04-29T06:40:06.770Z,22.40
2019-04-29T06:42:39.612Z,23.47
2019-04-29T06:45:12.369Z,22.77
2019-04-29T06:47:45.195Z,26.10
2019-04-29T06:50:18.694Z,23.87
2019-04-29T06:52:51.584Z,24.40
2019-04-29T06:55:24.336Z,25.50
2019-04-29T06:57:57.025Z,24.03
2019-04-29T07:00:29.640Z,24.30
2019-04-29T07:03:02.504Z,25.87
2019-04-29T07:05:35.105Z,24.93
2019-04-29T07:08:08.014Z,23.90
2019-04-29T07:10:40.336Z,24.27
2019-04-29T07:13:12.875Z,23.20
2019-04-29T07:15:47.758Z,24.43
2019-04-29T07:18:19.394Z,23.93
2019-04-29T07:20:51.875Z,24.30
2019-04-29T07:23:24.455Z,24.70
2019-04-29T07:25:57.174Z,24.63
2019-04-29T07:28:29.924Z,22.40
2019-04-29T07:31:03.151Z,23.70
2019-04-29T07:33:35.835Z,22.53
2019-04-29T07:36:11.275Z,24.73
2019-04-29T07:38:46.528Z,22.50
2019-04-29T07:41:19.030Z,23.37
2019-04-29T07:43:50.275Z,24.70
2019-04-29T07:46:24.176Z,24.50
2019-04-29T07:49:01.791Z,23.83
2019-04-29T07:51:30.635Z,24.03
2019-04-29T07:54:03.154Z,25.47
2019-04-29T07:56:37.866Z,25.73
2019-04-29T07:59:11.325Z,24.93
2019-04-29T08:01:44.074Z,24.40
2019-04-29T08:04:16.554Z,25.23
2019-04-29T08:06:50.097Z,23.87
2019-04-29T08:09:22.516Z,24.30
2019-04-29T08:11:55.215Z,24.13
2019-04-29T08:14:28.377Z,25.13
2019-04-29T08:17:00.955Z,25.53
2019-04-29T08:19:33.374Z,23.17
2019-04-29T08:22:05.835Z,25.33
2019-04-29T08:24:38.375Z,24.27
2019-04-29T08:27:11.016Z,24.40
2019-04-29T08:29:45.055Z,24.93
2019-04-29T08:32:17.415Z,25.27
2019-04-29T08:34:53.598Z,25.57
2019-04-29T08:37:24.993Z,24.10
2019-04-29T08:40:14.750Z,23.80
2019-04-29T08:42:46.675Z,26.07
2019-04-29T08:45:34.804Z,24.67
2019-04-29T08:48:08.005Z,23.93
2019-04-29T08:50:40.385Z,25.77
2019-04-29T08:53:12.986Z,25.57
2019-04-29T08:55:45.385Z,25.97
2019-04-29T08:58:17.868Z,25.07
2019-04-29T09:00:51.453Z,26.23
2019-04-29T09:03:24.505Z,26.00
2019-04-29T09:06:05.005Z,25.00
2019-04-29T09:08:32.839Z,25.67
2019-04-29T09:11:08.121Z,25.90
2019-04-29T09:13:39.607Z,25.60
2019-04-29T09:16:12.085Z,25.80
2019-04-29T09:18:44.590Z,25.50
2019-04-29T09:21:17.024Z,26.07
2019-04-29T09:23:50.645Z,25.50
2019-04-29T09:26:32.485Z,25.53
2019-04-29T09:29:23.145Z,27.37
2019-04-29T09:31:55.705Z,24.13
2019-04-29T09:34:28.286Z,25.60
2019-04-29T09:37:00.872Z,25.33
2019-04-29T09:39:42.889Z,25.03
2019-04-29T09:42:22.685Z,24.27
2019-04-29T09:44:59.845Z,24.00
2019-04-29T09:47:33.925Z,26.27
2019-04-29T09:50:10.229Z,22.83
2019-04-29T09:52:42.705Z,24.47
2019-04-29T09:55:16.999Z,23.17
2019-04-29T09:57:49.625Z,25.00
2019-04-29T10:00:26.172Z,22.77
2019-04-29T10:03:05.966Z,24.77
2019-04-29T10:05:48.385Z,21.63
2019-04-29T10:08:20.905Z,23.40
2019-04-29T10:10:53.367Z,23.53
2019-04-29T10:13:25.826Z,21.43
2019-04-29T10:16:11.786Z,21.73
2019-04-29T10:18:50.166Z,18.77
2019-04-29T10:21:23.449Z,16.67
2019-04-29T10:23:56.625Z,20.75
2019-04-29T10:26:28.966Z,20.95
2019-04-29T10:29:05.968Z,19.95
2019-04-29T10:31:38.445Z,18.80
2019-04-29T10:34:12.765Z,18.95
2019-04-29T10:36:45.265Z,19.32
2019-04-29T10:39:35.465Z,18.57
2019-04-29T10:42:09.525Z,18.12
2019-04-29T10:44:59.610Z,19.32
2019-04-29T10:47:36.425Z,17.37
2019-04-29T10:50:15.428Z,17.90
2019-04-29T10:52:49.525Z,17.92
2019-04-29T10:55:25.591Z,17.02
2019-04-29T10:57:56.925Z,17.55
2019-04-29T11:00:57.316Z,16.87
2019-04-29T11:03:27.284Z,17.57
2019-04-29T11:06:01.958Z,16.50
2019-04-29T11:08:46.345Z,17.02
2019-04-29T11:11:23.227Z,16.27
2019-04-29T11:13:57.674Z,17.25
2019-04-29T11:16:45.307Z,16.70
2019-04-29T11:19:05.456Z,17.60
2019-04-29T11:21:38.968Z,16.00
2019-04-29T11:24:15.945Z,15.75
2019-04-29T11:27:11.177Z,17.25
2019-04-29T11:29:35.806Z,16.85
2019-04-29T11:32:08.985Z,18.40
2019-04-29T11:34:43.144Z,16.60
2019-04-29T11:37:17.939Z,15.95
2019-04-29T11:39:51.395Z,16.52
2019-04-29T11:42:24.385Z,15.65
2019-04-29T11:45:01.443Z,16.07
2019-04-29T11:47:33.245Z,16.62
2019-04-29T11:50:11.845Z,16.30
2019-04-29T11:52:43.904Z,16.73
2019-04-29T11:55:18.493Z,15.30
2019-04-29T11:57:57.964Z,14.85
2019-04-29T12:00:33.178Z,14.85
2019-04-29T12:03:14.354Z,14.93
2019-04-29T12:05:49.444Z,14.68
2019-04-29T12:08:21.965Z,14.23
2019-04-29T12:11:06.686Z,15.05
2019-04-29T12:13:30.305Z,45.85
2019-04-29T12:16:04.868Z,16.20
2019-04-29T12:18:53.905Z,19.23
2019-04-29T12:21:31.169Z,17.75
2019-04-29T12:24:04.305Z,16.73
2019-04-29T12:26:43.128Z,15.30
2019-04-29T12:29:13.624Z,17.25
2019-04-29T12:32:03.065Z,15.50
2019-04-29T12:34:53.275Z,14.98
2019-04-29T12:37:34.345Z,14.20
2019-04-29T12:40:24.987Z,12.18
2019-04-29T12:42:57.226Z,11.48
2019-04-29T12:45:32.054Z,12.85
2019-04-29T12:48:06.653Z,12.70
2019-04-29T12:50:39.086Z,11.40
2019-04-29T12:53:11.845Z,12.80
2019-04-29T12:55:49.460Z,12.33
2019-04-29T12:58:24.174Z,13.10
2019-04-29T13:01:01.160Z,11.63
2019-04-29T13:03:39.527Z,11.50
2019-04-29T13:06:38.798Z,10.63
2019-04-29T13:09:17.299Z,11.78
2019-04-29T13:11:48.328Z,10.10
2019-04-29T13:14:14.625Z,10.05
2019-04-29T13:16:55.805Z,9.98
2019-04-29T13:19:39.455Z,10.03
2019-04-29T13:22:15.516Z,10.58
2019-04-29T13:24:46.127Z,9.70
2019-04-29T13:27:20.756Z,10.15
2019-04-29T13:29:52.585Z,11.35
2019-04-29T13:32:29.861Z,10.53
2019-04-29T13:35:05.379Z,9.38
2019-04-29T13:37:35.805Z,10.93
2019-04-29T13:40:11.727Z,9.78
2019-04-29T13:42:48.491Z,9.55
2019-04-29T13:45:26.953Z,9.50
2019-04-29T13:48:07.111Z,9.20
2019-04-29T13:50:42.809Z,9.85
2019-04-29T13:53:16.572Z,10.43
2019-04-29T13:56:10.048Z,10.05
2019-04-29T13:58:27.168Z,11.53
2019-04-29T14:01:04.746Z,10.60
2019-04-29T14:03:41.978Z,9.83
2019-04-29T14:06:14.394Z,11.33
2019-04-29T14:08:48.005Z,11.25
2019-04-29T14:11:22.001Z,11.18
2019-04-29T14:13:54.786Z,11.12
2019-04-29T14:16:27.211Z,10.82
2019-04-29T14:18:59.611Z,9.48
2019-04-29T14:21:32.730Z,10.60
2019-04-29T14:24:05.370Z,11.25
2019-04-29T14:26:41.941Z,10.80
2019-04-29T14:29:11.550Z,10.82
2019-04-29T14:31:46.690Z,11.60
2019-04-29T14:34:21.302Z,10.78
2019-04-29T14:36:57.497Z,10.93
2019-04-29T14:39:37.264Z,11.65
2019-04-29T14:42:05.067Z,11.10
2019-04-29T14:44:39.085Z,10.58
2019-04-29T14:47:29.399Z,11.00
2019-04-29T14:50:03.591Z,9.83
2019-04-29T14:52:36.350Z,11.43
2019-04-29T14:55:09.410Z,10.30
2019-04-29T14:57:42.981Z,10.55
2019-04-29T15:00:23.407Z,10.50
2019-04-29T15:03:00.612Z,11.00
2019-04-29T15:05:32.766Z,9.98
2019-04-29T15:08:05.287Z,10.68
2019-04-29T15:10:38.584Z,10.63
2019-04-29T15:13:21.177Z,11.35
2019-04-29T15:16:09.680Z,12.13
2019-04-29T15:18:48.649Z,11.35
2019-04-29T15:21:32.984Z,11.10
2019-04-29T15:24:05.260Z,9.65
2019-04-29T15:26:37.620Z,10.93
2019-04-29T15:29:10.060Z,9.58
2019-04-29T15:31:47.162Z,10.43
2019-04-29T15:34:16.880Z,9.75
2019-04-29T15:36:49.279Z,9.85
2019-04-29T15:39:24.889Z,10.05
2019-04-29T15:41:56.363Z,10.48
2019-04-29T15:44:28.914Z,10.98
2019-04-29T15:47:01.522Z,13.83
2019-04-29T15:49:33.940Z,11.85
2019-04-29T15:52:06.400Z,12.70
2019-04-29T15:54:39.121Z,13.80
2019-04-29T15:57:15.481Z,11.65
2019-04-29T15:59:49.072Z,8.58
2019-04-29T16:02:20.060Z,10.60
2019-04-29T16:04:54.182Z,17.57
2019-04-29T16:07:37.220Z,11.00
2019-04-29T16:10:23.900Z,12.98
2019-04-29T16:13:00.780Z,12.80
2019-04-29T16:15:33.460Z,11.28
2019-04-29T16:18:10.570Z,10.70
2019-04-29T16:20:40.040Z,10.50
2019-04-29T16:23:12.620Z,10.08
2019-04-29T16:25:46.197Z,10.75
2019-04-29T16:28:24.337Z,10.05
2019-04-29T16:30:53.378Z,9.53
2019-04-29T16:33:26.921Z,9.03
2019-04-29T16:36:04.783Z,9.15
2019-04-29T16:38:33.945Z,9.25
2019-04-29T16:41:21.245Z,10.08
2019-04-29T16:43:55.465Z,8.80
2019-04-29T16:49:08.919Z,9.65
2019-04-29T16:51:41.573Z,8.85
2019-04-29T16:54:20.554Z,9.28
2019-04-29T16:56:50.002Z,9.03
2019-04-29T16:59:23.730Z,9.20
2019-04-29T17:01:56.600Z,8.13
2019-04-29T17:04:29.298Z,8.20
2019-04-29T17:07:12.356Z,9.13
2019-04-29T17:09:37.720Z,7.87
2019-04-29T17:12:11.110Z,8.18
2019-04-29T17:17:28.339Z,8.53
2019-04-29T17:19:54.070Z,8.08
2019-04-29T17:22:27.682Z,9.98
2019-04-29T17:25:01.705Z,9.58
2019-04-29T17:27:42.079Z,9.83
2019-04-29T17:30:29.303Z,8.93
2019-04-29T17:33:10.023Z,10.25
2019-04-29T17:35:15.895Z,9.43
2019-04-29T17:35:17.482Z,8.25
2019-04-29T17:35:47.614Z,9.08
2019-04-29T17:38:17.335Z,8.65
2019-04-29T17:40:51.087Z,9.43
2019-04-29T17:43:24.005Z,9.70
2019-04-29T17:46:07.285Z,9.23
2019-04-29T17:48:53.216Z,8.98
2019-04-29T17:51:26.643Z,9.80
2019-04-29T17:54:05.230Z,8.28
2019-04-29T17:56:48.896Z,9.05
2019-04-29T17:59:29.670Z,9.38
2019-04-29T18:02:18.415Z,10.25
2019-04-29T18:04:57.264Z,8.95
2019-04-29T18:07:51.571Z,9.93
2019-04-29T18:10:24.348Z,9.55
2019-04-29T18:12:54.979Z,9.33
2019-04-29T18:15:40.205Z,8.75
2019-04-29T18:18:07.211Z,9.15
2019-04-29T18:20:42.484Z,9.60
2019-04-29T18:23:30.045Z,9.50
2019-04-29T18:26:04.841Z,9.38
2019-04-29T18:28:37.547Z,10.78
2019-04-29T18:31:11.845Z,10.68
2019-04-29T18:33:45.151Z,10.65
2019-04-29T18:36:23.714Z,9.13
2019-04-29T18:38:52.141Z,10.28
2019-04-29T18:41:28.554Z,10.32
2019-04-29T18:44:03.014Z,9.60
2019-04-29T18:46:35.179Z,9.95
2019-04-29T18:49:07.930Z,9.38
2019-04-29T18:51:40.295Z,10.23
2019-04-29T18:54:12.896Z,9.47
2019-04-29T18:56:45.678Z,10.07
2019-04-29T18:59:21.265Z,10.65
2019-04-29T19:01:52.841Z,10.48
2019-04-29T19:04:25.663Z,10.30
2019-04-29T19:07:02.085Z,11.68
2019-04-29T19:09:35.842Z,10.37
2019-04-29T19:12:09.150Z,9.43
2019-04-29T19:14:42.052Z,9.77
2019-04-29T19:17:16.160Z,10.67
2019-04-29T19:19:50.420Z,10.10
2019-04-29T19:22:23.280Z,9.37
2019-04-29T19:24:55.995Z,9.67
2019-04-29T19:27:30.569Z,9.68
2019-04-29T19:30:05.331Z,10.77
2019-04-29T19:32:39.080Z,10.33
2019-04-29T19:35:12.320Z,8.83
2019-04-29T19:37:45.426Z,9.40
2019-04-29T19:40:19.170Z,12.03
2019-04-29T19:42:51.855Z,8.57
2019-04-29T19:45:24.665Z,9.23
2019-04-29T19:47:57.480Z,9.80
2019-04-29T19:50:31.384Z,9.97
2019-04-29T19:53:04.909Z,10.83
2019-04-29T19:55:42.248Z,9.93
2019-04-29T19:58:14.725Z,9.53
2019-04-29T20:00:48.808Z,9.28
2019-04-29T20:03:25.133Z,9.57
2019-04-29T20:06:08.451Z,8.77
2019-04-29T20:08:50.883Z,9.57
2019-04-29T20:11:14.161Z,13.93
2019-04-29T20:13:46.804Z,8.73
2019-04-29T20:16:42.795Z,8.93
2019-04-29T20:19:16.455Z,9.37
2019-04-29T20:21:43.263Z,8.67
2019-04-29T20:24:17.909Z,7.90
2019-04-29T20:26:51.261Z,7.67
2019-04-29T20:29:28.603Z,8.60
2019-04-29T20:31:58.958Z,8.07
2019-04-29T20:34:32.256Z,8.37
2019-04-29T20:37:06.065Z,8.17
2019-04-29T20:39:39.341Z,8.00
2019-04-29T20:42:12.240Z,7.67
2019-04-29T20:44:48.817Z,7.97
2019-04-29T20:47:23.285Z,8.57
2019-04-29T20:49:54.444Z,8.67
2019-04-29T20:52:36.205Z,8.10
2019-04-29T20:55:09.752Z,7.97
2019-04-29T20:57:42.755Z,7.90
2019-04-29T21:00:20.236Z,7.20
2019-04-29T21:02:50.712Z,7.40
2019-04-29T21:05:24.924Z,7.70
2019-04-29T21:08:03.541Z,8.33
2019-04-29T21:10:32.429Z,7.10
2019-04-29T21:13:15.164Z,8.70
2019-04-29T21:16:00.162Z,8.60
2019-04-29T21:18:32.770Z,7.37
2019-04-29T21:21:07.880Z,6.70
2019-04-29T21:23:40.050Z,8.00
2019-04-29T21:26:12.569Z,8.17
2019-04-29T21:28:47.025Z,7.67
2019-04-29T21:31:20.164Z,7.90
2019-04-29T21:33:57.450Z,8.13
2019-04-29T21:36:30.966Z,8.70
2019-04-29T21:39:22.851Z,7.73
2019-04-29T21:41:58.649Z,7.43
2019-04-29T21:44:29.684Z,8.30
2019-04-29T21:47:06.628Z,6.60
2019-04-29T21:49:45.322Z,7.50
2019-04-29T21:52:12.064Z,7.90
2019-04-29T21:54:49.127Z,7.13
2019-04-29T21:57:23.899Z,7.20
2019-04-29T21:59:53.179Z,6.60
2019-04-29T22:02:26.159Z,6.73
2019-04-29T22:04:59.054Z,6.70
2019-04-29T22:07:31.534Z,7.37
2019-04-29T22:10:05.256Z,6.50
2019-04-29T22:12:38.976Z,6.70
2019-04-29T22:15:15.802Z,6.50
2019-04-29T22:17:56.431Z,7.00
2019-04-29T22:20:23.116Z,6.50
2019-04-29T22:22:56.002Z,6.47
2019-04-29T22:25:28.880Z,6.20
2019-04-29T22:28:01.760Z,6.33
2019-04-29T22:30:35.425Z,6.40
2019-04-29T22:33:08.714Z,6.80
2019-04-29T22:35:41.169Z,6.57
2019-04-29T22:38:16.267Z,6.73
2019-04-29T22:40:48.350Z,6.30
2019-04-29T22:43:40.323Z,6.27
2019-04-29T22:46:12.156Z,6.83
2019-04-29T22:48:48.420Z,6.00
2019-04-29T22:51:19.425Z,5.73
2019-04-29T22:53:52.085Z,6.33
2019-04-29T22:56:27.612Z,6.47
2019-04-29T22:58:59.221Z,7.17
2019-04-29T23:01:32.061Z,6.57
2019-04-29T23:04:05.277Z,7.30
2019-04-29T23:06:39.895Z,6.10
2019-04-29T23:09:13.194Z,6.80
2019-04-29T23:11:47.539Z,6.40
2019-04-29T23:14:20.059Z,6.70
2019-04-29T23:16:52.785Z,7.37
2019-04-29T23:19:26.011Z,6.97
2019-04-29T23:22:22.159Z,7.43
2019-04-29T23:25:01.752Z,7.70
2019-04-29T23:27:36.054Z,7.40
2019-04-29T23:30:13.694Z,7.80
2019-04-29T23:32:47.513Z,7.90
2019-04-29T23:35:19.412Z,7.57
2019-04-29T23:37:51.991Z,7.53
2019-04-29T23:40:24.785Z,7.87
2019-04-29T23:42:57.526Z,7.30
2019-04-29T23:45:30.235Z,8.00
2019-04-29T23:48:02.860Z,6.77
2019-04-29T23:50:36.013Z,6.90
2019-04-29T23:53:08.695Z,7.03
2019-04-29T23:55:41.365Z,7.40
2019-04-29T23:58:32.728Z,7.10
